Time;durP1;ratioP1;P1;durP2;ratioP2;P2;SDS_P1;SDS_P2;PMS_P1;PMS_P2;Temp;Humidity;BMP_temperature;BMP_pressure;BME280_temperature;BME280_humidity;BME280_pressure;Samples;Min_cycle;Max_cycle;Signal;HPM_P1;HPM_P2
2023/08/11 00:00:55;;;;;;;16.00;11.02;;;;;;;21.94;65.10;102108.81;5069116;28;20037;-44
2023/08/11 00:03:20;;;;;;;15.82;11.68;;;;;;;22.07;64.37;102111.31;5068391;28;20462;-48
2023/08/11 00:05:46;;;;;;;15.02;10.80;;;;;;;22.26;63.38;102101.28;5069335;28;20390;-41
2023/08/11 00:08:13;;;;;;;14.77;11.73;;;;;;;22.05;64.32;102104.25;5068618;28;20068;-46
2023/08/11 00:10:38;;;;;;;14.57;10.88;;;;;;;22.14;63.77;102106.78;5069162;28;20029;-48
2023/08/11 00:13:06;;;;;;;16.25;11.73;;;;;;;22.04;64.46;102100.72;5068476;28;20135;-47
2023/08/11 00:15:32;;;;;;;14.82;10.90;;;;;;;22.27;63.31;102097.72;5069151;28;20029;-46
2023/08/11 00:18:00;;;;;;;14.60;11.30;;;;;;;22.00;64.71;102099.03;5069450;28;20077;-45
2023/08/11 00:20:29;;;;;;;16.33;11.10;;;;;;;22.31;63.32;102095.91;5068589;28;20195;-47
2023/08/11 00:22:55;;;;;;;15.65;11.15;;;;;;;22.24;63.70;102100.44;5069067;28;20063;-45
2023/08/11 00:25:21;;;;;;;16.23;11.13;;;;;;;22.27;63.53;102090.63;5070235;28;20060;-49
2023/08/11 00:27:47;;;;;;;14.68;11.13;;;;;;;22.21;63.71;102088.06;5072822;28;20044;-45
2023/08/11 00:30:12;;;;;;;13.23;10.43;;;;;;;22.26;63.59;102085.34;5072515;28;20128;-46
2023/08/11 00:32:38;;;;;;;13.88;11.00;;;;;;;22.13;64.17;102082.00;5072441;28;20033;-52
2023/08/11 00:35:04;;;;;;;14.73;11.75;;;;;;;22.07;64.16;102079.44;5072972;28;20538;-45
2023/08/11 00:37:30;;;;;;;13.85;10.68;;;;;;;22.23;63.37;102073.00;5072340;28;20043;-45
2023/08/11 00:39:55;;;;;;;14.50;10.80;;;;;;;22.21;64.01;102071.25;5073623;28;20512;-44
2023/08/11 00:42:20;;;;;;;13.88;10.52;;;;;;;22.04;64.19;102073.28;5073186;28;20043;-47
2023/08/11 00:44:46;;;;;;;13.77;9.77;;;;;;;22.20;63.79;102074.81;5074247;28;20036;-44
2023/08/11 00:47:11;;;;;;;13.88;10.90;;;;;;;22.06;64.16;102074.16;5074869;28;20062;-46
2023/08/11 00:49:37;;;;;;;14.95;10.32;;;;;;;22.03;64.53;102066.22;5076537;28;20064;-48
2023/08/11 00:52:03;;;;;;;12.90;10.38;;;;;;;22.05;63.90;102067.97;5077644;28;20605;-43
2023/08/11 00:54:30;;;;;;;16.27;10.73;;;;;;;22.04;63.98;102055.56;5074162;28;20059;-44
2023/08/11 00:56:56;;;;;;;21.58;10.60;;;;;;;22.11;63.70;102054.59;5075413;28;20410;-46
2023/08/11 00:59:21;;;;;;;14.00;10.30;;;;;;;22.05;64.17;102065.31;5072270;28;20043;-45
2023/08/11 01:01:47;;;;;;;14.15;9.40;;;;;;;22.10;63.82;102065.22;5072775;28;20040;-49
2023/08/11 01:04:12;;;;;;;13.68;10.23;;;;;;;21.86;65.02;102062.00;5071535;28;20032;-49
2023/08/11 01:06:50;;;;;;;13.55;10.25;;;;;;;21.73;65.18;102060.41;5072641;28;20024;-51
2023/08/11 01:09:43;;;;;;;15.73;10.90;;;;;;;21.47;66.19;102061.69;5072079;28;20717;-50
2023/08/11 01:12:29;;;;;;;13.57;10.50;;;;;;;21.65;65.53;102066.75;5073089;28;20503;-45
2023/08/11 01:15:10;;;;;;;15.90;10.18;;;;;;;21.71;65.26;102061.34;5072635;28;20040;-48
2023/08/11 01:17:38;;;;;;;15.52;10.80;;;;;;;21.24;66.61;102064.59;5073475;28;20032;-47
2023/08/11 01:20:10;;;;;;;14.93;10.55;;;;;;;21.49;66.06;102063.41;5074804;28;20063;-45
2023/08/11 01:22:38;;;;;;;13.70;10.40;;;;;;;21.46;66.26;102058.16;5073734;28;20061;-44
2023/08/11 01:25:06;;;;;;;12.30;9.95;;;;;;;21.55;65.43;102050.06;5071648;28;20127;-49
2023/08/11 01:27:35;;;;;;;14.07;10.25;;;;;;;21.52;65.63;102047.47;5071260;28;20032;-46
2023/08/11 01:30:00;;;;;;;13.82;10.48;;;;;;;21.25;67.04;102042.47;5071906;28;20473;-44
2023/08/11 01:32:25;;;;;;;14.30;10.35;;;;;;;21.65;65.25;102043.72;5071669;28;20050;-46
2023/08/11 01:34:51;;;;;;;15.05;10.10;;;;;;;21.43;66.42;102044.91;5071106;28;20056;-44
2023/08/11 01:37:16;;;;;;;13.18;10.27;;;;;;;21.43;66.41;102039.59;5070719;28;20036;-47
2023/08/11 01:39:43;;;;;;;16.30;10.32;;;;;;;21.64;65.55;102039.31;5071632;28;20064;-46
2023/08/11 01:42:08;;;;;;;14.55;10.18;;;;;;;21.51;66.01;102037.72;5071796;28;20091;-46
2023/08/11 01:44:34;;;;;;;15.43;10.32;;;;;;;21.48;66.17;102039.53;5070198;28;20070;-46
2023/08/11 01:47:00;;;;;;;16.42;10.48;;;;;;;21.33;66.56;102037.97;5071892;28;20032;-49
2023/08/11 01:49:26;;;;;;;15.55;10.70;;;;;;;21.21;67.30;102036.34;5071268;28;20033;-46
2023/08/11 01:51:53;;;;;;;13.73;10.02;;;;;;;21.40;66.77;102032.56;5071420;28;20398;-49
2023/08/11 01:54:19;;;;;;;15.63;10.25;;;;;;;21.29;67.02;102041.53;5068743;28;20402;-49
2023/08/11 01:56:45;;;;;;;14.57;10.48;;;;;;;21.40;66.92;102042.31;5071381;28;20036;-50
2023/08/11 01:59:12;;;;;;;12.70;10.07;;;;;;;21.51;66.34;102042.16;5070803;28;20029;-50
2023/08/11 02:01:38;;;;;;;12.93;9.68;;;;;;;21.62;65.79;102051.72;5071118;28;20036;-47
2023/08/11 02:04:05;;;;;;;13.50;9.93;;;;;;;21.72;65.61;102048.03;5070526;28;20044;-45
2023/08/11 02:06:30;;;;;;;11.95;8.85;;;;;;;21.72;65.52;102050.69;5070691;28;20052;-43
2023/08/11 02:08:56;;;;;;;13.02;9.40;;;;;;;21.73;65.23;102051.56;5071209;28;20162;-44
2023/08/11 02:11:22;;;;;;;12.10;8.35;;;;;;;21.57;65.96;102050.91;5070556;28;20040;-44
2023/08/11 02:13:48;;;;;;;12.57;9.07;;;;;;;21.41;67.11;102046.69;5070374;28;20033;-47
2023/08/11 02:16:13;;;;;;;12.45;9.13;;;;;;;21.32;67.36;102041.50;5070363;28;20051;-47
2023/08/11 02:18:39;;;;;;;14.70;9.48;;;;;;;21.47;67.06;102043.09;5070391;28;20024;-49
2023/08/11 02:21:06;;;;;;;11.98;8.98;;;;;;;21.43;67.11;102040.47;5070460;28;20178;-44
2023/08/11 02:23:32;;;;;;;11.50;9.20;;;;;;;21.38;67.11;102046.75;5069636;28;20585;-46
2023/08/11 02:25:57;;;;;;;11.88;8.80;;;;;;;21.38;66.99;102044.09;5070702;28;20037;-51
2023/08/11 02:28:23;;;;;;;11.63;9.40;;;;;;;21.40;67.17;102039.66;5070073;28;20059;-47
2023/08/11 02:30:48;;;;;;;11.82;9.52;;;;;;;21.13;68.20;102042.59;5069045;28;20580;-50
2023/08/11 02:33:18;;;;;;;11.30;9.10;;;;;;;21.22;67.63;102030.16;5069472;28;20044;-50
2023/08/11 02:35:44;;;;;;;12.80;8.88;;;;;;;21.20;68.37;102028.41;5070520;28;20562;-46
2023/08/11 02:38:09;;;;;;;13.25;9.35;;;;;;;21.09;68.09;102027.63;5070486;28;20072;-44
2023/08/11 02:40:35;;;;;;;15.25;9.32;;;;;;;20.97;68.77;102021.56;5070022;28;20383;-46
2023/08/11 02:43:02;;;;;;;11.73;9.75;;;;;;;21.06;68.40;102024.09;5070105;28;20110;-52
2023/08/11 02:45:27;;;;;;;10.98;8.70;;;;;;;21.30;67.50;102025.63;5069931;28;20036;-46
2023/08/11 02:47:52;;;;;;;16.55;9.48;;;;;;;21.24;68.28;102033.66;5069767;28;20474;-49
2023/08/11 02:50:18;;;;;;;13.68;9.07;;;;;;;21.22;67.80;102027.50;5069726;28;20029;-47
2023/08/11 02:52:43;;;;;;;13.50;8.85;;;;;;;21.05;68.52;102030.28;5069844;28;20036;-47
2023/08/11 02:55:11;;;;;;;11.63;8.93;;;;;;;21.04;68.62;102027.69;5070000;28;20037;-47
2023/08/11 02:57:36;;;;;;;11.57;9.02;;;;;;;21.17;68.42;102028.44;5069906;28;20032;-46
2023/08/11 03:00:09;;;;;;;11.13;9.52;;;;;;;20.97;69.00;102026.88;5070253;28;20039;-46
2023/08/11 03:02:35;;;;;;;10.20;8.55;;;;;;;21.32;67.70;102028.25;5069776;28;20037;-41
2023/08/11 03:05:00;;;;;;;12.13;8.73;;;;;;;21.02;68.31;102024.16;5069913;28;20601;-46
2023/08/11 03:07:26;;;;;;;10.90;8.80;;;;;;;21.29;67.79;102020.31;5069487;28;20046;-49
2023/08/11 03:09:51;;;;;;;12.05;8.80;;;;;;;21.07;68.34;102022.34;5069972;28;20067;-47
2023/08/11 03:12:17;;;;;;;11.30;8.68;;;;;;;21.24;67.97;102024.81;5069454;28;20068;-44
2023/08/11 03:14:42;;;;;;;11.25;8.43;;;;;;;21.11;68.12;102012.56;5069260;28;20039;-46
2023/08/11 03:17:10;;;;;;;10.82;9.23;;;;;;;21.00;68.63;102021.53;5070213;28;20541;-44
2023/08/11 03:19:35;;;;;;;16.75;9.15;;;;;;;21.10;68.11;102016.13;5049998;28;20037;-45
2023/08/11 03:22:01;;;;;;;12.20;8.88;;;;;;;20.96;68.86;102016.28;5050621;28;20120;-43
2023/08/11 03:24:26;;;;;;;10.52;8.63;;;;;;;20.99;68.69;102016.22;5059827;28;20090;-49
2023/08/11 03:26:51;;;;;;;10.88;9.20;;;;;;;20.95;68.62;102010.09;5070038;28;20036;-45
2023/08/11 03:29:17;;;;;;;11.10;8.93;;;;;;;21.04;68.45;102015.28;5068925;28;20406;-47
2023/08/11 03:31:42;;;;;;;12.43;8.20;;;;;;;21.47;66.74;102016.56;5069927;28;20029;-49
2023/08/11 03:34:08;;;;;;;10.32;8.30;;;;;;;21.43;66.85;102010.41;5068854;28;20064;-48
2023/08/11 03:36:33;;;;;;;10.73;8.35;;;;;;;21.46;66.74;102007.75;5069275;28;20040;-44
2023/08/11 03:38:59;;;;;;;13.23;8.50;;;;;;;21.34;66.97;102008.78;5069912;28;20093;-48
2023/08/11 03:41:24;;;;;;;12.73;8.32;;;;;;;21.38;66.97;102004.28;5069064;28;20028;-47
2023/08/11 03:43:50;;;;;;;10.90;8.45;;;;;;;21.32;67.06;102004.38;5069150;28;20043;-49
2023/08/11 03:46:15;;;;;;;13.13;8.70;;;;;;;20.97;67.88;101999.50;5069225;28;20040;-53
2023/08/11 03:48:42;;;;;;;12.48;8.60;;;;;;;21.02;68.18;102001.19;5069649;28;20051;-46
2023/08/11 03:51:07;;;;;;;11.93;8.50;;;;;;;21.05;68.10;101998.47;5069406;28;20056;-50
2023/08/11 03:53:33;;;;;;;10.57;8.02;;;;;;;21.24;67.06;101999.16;5068880;28;20106;-45
2023/08/11 03:55:59;;;;;;;10.57;8.18;;;;;;;20.90;68.20;101993.38;5069713;28;20028;-45
2023/08/11 03:58:24;;;;;;;11.48;8.38;;;;;;;21.16;67.59;101990.44;5069245;28;20043;-45
2023/08/11 04:00:50;;;;;;;11.85;8.38;;;;;;;21.22;67.03;101982.41;5074074;28;20094;-49
2023/08/11 04:03:15;;;;;;;10.23;8.07;;;;;;;21.21;67.03;101970.06;5073041;28;20056;-44
2023/08/11 04:05:41;;;;;;;11.43;8.77;;;;;;;21.06;67.87;101981.69;5073923;28;20076;-45
2023/08/11 04:08:07;;;;;;;10.77;8.23;;;;;;;21.35;66.67;101975.16;5074800;28;20091;-46
2023/08/11 04:10:34;;;;;;;10.48;8.38;;;;;;;21.26;66.83;101968.22;5075700;28;20028;-48
2023/08/11 04:12:59;;;;;;;12.23;8.70;;;;;;;20.91;67.64;101965.97;5076284;28;20441;-43
2023/08/11 04:15:26;;;;;;;14.77;9.20;;;;;;;20.81;68.06;101963.44;5073160;28;20498;-43
2023/08/11 04:17:51;;;;;;;11.45;8.65;;;;;;;21.16;66.72;101960.41;5073026;28;20128;-45
2023/08/11 04:20:17;;;;;;;13.88;8.68;;;;;;;21.02;67.40;101964.06;5072620;28;20160;-45
2023/08/11 04:22:43;;;;;;;13.40;9.18;;;;;;;21.28;66.37;101953.16;5072851;28;20044;-45
2023/08/11 04:25:10;;;;;;;13.80;9.13;;;;;;;21.35;65.85;101951.28;5073060;28;20105;-44
2023/08/11 04:27:36;;;;;;;11.80;9.13;;;;;;;21.21;66.06;101954.13;5072417;28;20097;-45
2023/08/11 04:30:02;;;;;;;13.93;9.40;;;;;;;21.12;66.11;101951.56;5072878;28;20503;-44
2023/08/11 04:32:28;;;;;;;13.57;9.25;;;;;;;21.43;65.09;101949.41;5072319;28;20043;-46
2023/08/11 04:34:53;;;;;;;11.65;9.00;;;;;;;21.37;65.15;101944.19;5071958;28;20037;-47
2023/08/11 04:37:19;;;;;;;12.70;9.10;;;;;;;21.58;64.51;101949.19;5072348;28;20059;-46
2023/08/11 04:39:44;;;;;;;13.10;9.20;;;;;;;21.58;64.39;101946.53;5072610;28;20040;-47
2023/08/11 04:42:09;;;;;;;13.32;9.40;;;;;;;21.62;64.28;101942.91;5072425;28;20071;-49
2023/08/11 04:44:35;;;;;;;14.20;9.90;;;;;;;21.31;65.33;101937.19;5071763;28;20055;-47
2023/08/11 04:47:00;;;;;;;13.50;9.45;;;;;;;21.49;64.77;101938.69;5071512;28;20113;-46
2023/08/11 04:49:25;;;;;;;16.40;9.45;;;;;;;21.48;64.12;101930.75;5072121;28;20025;-44
2023/08/11 04:51:51;;;;;;;17.40;9.63;;;;;;;21.40;64.42;101933.53;5072464;28;20037;-44
2023/08/11 04:54:17;;;;;;;13.63;9.15;;;;;;;21.68;63.65;101934.88;5071558;28;20040;-46
2023/08/11 04:56:43;;;;;;;14.25;8.70;;;;;;;21.95;62.82;101940.63;5077298;28;20104;-45
2023/08/11 04:59:09;;;;;;;15.27;9.27;;;;;;;21.92;62.52;101938.91;5079428;28;20047;-44
2023/08/11 05:01:34;;;;;;;13.48;9.00;;;;;;;21.98;62.51;101948.56;5077082;28;20056;-43
2023/08/11 05:04:00;;;;;;;14.70;9.40;;;;;;;22.05;62.04;101945.78;5073376;28;20589;-47
2023/08/11 05:06:25;;;;;;;15.23;9.25;;;;;;;22.05;62.05;101950.22;5070884;28;20040;-49
2023/08/11 05:08:50;;;;;;;17.25;9.45;;;;;;;22.04;62.08;101949.34;5072843;28;20119;-47
2023/08/11 05:11:15;;;;;;;12.20;8.85;;;;;;;22.13;62.12;101949.22;5070749;28;20491;-44
2023/08/11 05:13:41;;;;;;;16.92;9.60;;;;;;;22.16;62.25;101950.91;5071582;28;20078;-46
2023/08/11 05:16:06;;;;;;;17.48;9.75;;;;;;;22.20;61.84;101944.66;5072364;28;20116;-48
2023/08/11 05:18:31;;;;;;;14.30;9.07;;;;;;;22.32;62.24;101946.22;5071687;28;20129;-45
2023/08/11 05:20:57;;;;;;;13.75;9.65;;;;;;;22.40;61.22;101941.63;5071949;28;20029;-47
2023/08/11 05:23:22;;;;;;;15.02;10.05;;;;;;;22.62;60.45;101948.31;5070734;28;20060;-47
2023/08/11 05:25:48;;;;;;;12.95;8.95;;;;;;;22.76;59.76;101938.28;5071966;28;20028;-49
2023/08/11 05:28:13;;;;;;;14.85;9.20;;;;;;;22.80;59.66;101939.13;5062269;28;20059;-48
2023/08/11 05:30:39;;;;;;;17.27;10.15;;;;;;;22.82;59.22;101938.16;5086837;28;20137;-46
2023/08/11 05:33:04;;;;;;;17.75;9.02;;;;;;;22.93;59.22;101940.63;5071336;28;20063;-48
2023/08/11 05:35:30;;;;;;;14.23;9.50;;;;;;;23.00;59.05;101934.25;5072010;28;20036;-46
2023/08/11 05:37:56;;;;;;;12.35;8.68;;;;;;;23.10;58.40;101935.81;5072374;28;20040;-48
2023/08/11 05:40:21;;;;;;;15.68;9.93;;;;;;;23.03;58.84;101940.41;5071691;28;20036;-48
2023/08/11 05:42:46;;;;;;;14.68;9.60;;;;;;;23.20;58.76;101944.47;5072001;28;20089;-46
2023/08/11 05:45:12;;;;;;;15.93;10.05;;;;;;;23.28;58.11;101954.03;5070402;28;20029;-46
2023/08/11 05:47:37;;;;;;;15.68;9.93;;;;;;;23.45;57.02;101948.34;5072166;28;20029;-46
2023/08/11 05:50:03;;;;;;;16.35;10.10;;;;;;;23.55;56.98;101946.34;5072505;28;20603;-47
2023/08/11 05:52:29;;;;;;;14.48;9.52;;;;;;;23.67;56.68;101952.28;5072200;28;20115;-51
2023/08/11 05:54:54;;;;;;;15.95;9.90;;;;;;;23.87;55.45;101954.47;5071202;28;20028;-45
2023/08/11 05:57:19;;;;;;;16.15;9.57;;;;;;;24.05;55.65;101956.66;5071165;28;20131;-48
2023/08/11 05:59:45;;;;;;;16.90;9.32;;;;;;;24.43;55.11;101960.16;5071597;28;20162;-45
2023/08/11 06:02:10;;;;;;;17.85;9.43;;;;;;;25.00;51.91;101963.91;5070782;28;20124;-46
2023/08/11 06:04:36;;;;;;;19.90;9.02;;;;;;;26.08;49.70;101948.94;5070635;28;20033;-49
2023/08/11 06:07:01;;;;;;;13.02;8.75;;;;;;;26.73;47.20;101953.78;5071280;28;20123;-46
2023/08/11 06:09:26;;;;;;;14.07;8.25;;;;;;;27.35;45.26;101948.75;5070519;28;20037;-48
2023/08/11 06:11:51;;;;;;;14.93;8.40;;;;;;;28.04;43.93;101947.72;5071097;28;20037;-52
2023/08/11 06:14:17;;;;;;;12.02;7.88;;;;;;;28.85;42.24;101950.41;5069912;28;20028;-46
2023/08/11 06:16:43;;;;;;;12.98;7.93;;;;;;;29.20;40.36;101954.19;5071201;28;20044;-49
2023/08/11 06:19:08;;;;;;;12.90;8.00;;;;;;;29.44;40.86;101944.09;5070970;28;20040;-50
2023/08/11 06:21:33;;;;;;;13.02;7.90;;;;;;;29.73;39.23;101945.34;5070373;28;20033;-45
2023/08/11 06:23:59;;;;;;;10.27;6.82;;;;;;;30.23;39.49;101945.50;5070101;28;20032;-46
2023/08/11 06:26:24;;;;;;;13.63;7.13;;;;;;;30.05;38.30;101946.47;5070408;28;20037;-46
2023/08/11 06:28:49;;;;;;;21.10;7.60;;;;;;;30.37;38.09;101948.38;5071149;28;20078;-47
2023/08/11 06:31:18;;;;;;;16.80;7.20;;;;;;;30.60;36.39;101941.78;5071124;28;20032;-50
2023/08/11 06:33:44;;;;;;;16.67;7.50;;;;;;;30.57;37.16;101950.00;5070306;28;20142;-45
2023/08/11 06:36:09;;;;;;;12.93;7.15;;;;;;;30.76;36.16;101934.63;5070998;28;20436;-46
2023/08/11 06:38:35;;;;;;;10.73;6.75;;;;;;;30.85;36.70;101936.81;5070460;28;20032;-51
2023/08/11 06:41:00;;;;;;;12.70;6.95;;;;;;;30.80;37.40;101935.34;5070354;28;20400;-47
2023/08/11 06:43:26;;;;;;;17.50;6.65;;;;;;;30.71;37.01;101935.81;5069384;28;20040;-52
2023/08/11 06:45:52;;;;;;;10.48;6.70;;;;;;;31.73;35.05;101930.97;5070505;28;20025;-46
2023/08/11 06:48:17;;;;;;;9.27;6.00;;;;;;;31.70;34.92;101934.75;5069762;28;20052;-48
2023/08/11 06:50:42;;;;;;;13.70;6.82;;;;;;;31.42;35.90;101935.41;5070645;28;20075;-46
2023/08/11 06:53:08;;;;;;;10.23;6.20;;;;;;;31.39;36.04;101929.34;5070190;28;20041;-49
2023/08/11 06:55:34;;;;;;;12.68;6.50;;;;;;;31.24;36.34;101928.38;5070809;28;20032;-50
2023/08/11 06:57:59;;;;;;;15.10;5.97;;;;;;;32.31;33.79;101939.22;5071417;28;20423;-47
2023/08/11 07:00:25;;;;;;;12.18;5.53;;;;;;;31.90;35.60;101941.63;5075029;28;20048;-48
2023/08/11 07:02:50;;;;;;;12.52;5.70;;;;;;;32.06;35.06;101941.59;5076118;28;20032;-51
2023/08/11 07:05:16;;;;;;;8.10;5.60;;;;;;;32.28;34.98;101943.91;5073892;28;20091;-46
2023/08/11 07:07:41;;;;;;;15.90;5.68;;;;;;;32.20;34.75;101949.78;5069828;28;20033;-45
2023/08/11 07:10:06;;;;;;;8.93;5.30;;;;;;;31.70;35.08;101948.22;5069766;28;20063;-45
2023/08/11 07:12:32;;;;;;;8.88;5.13;;;;;;;32.37;33.44;101948.75;5069459;28;20201;-48
2023/08/11 07:14:57;;;;;;;9.23;5.30;;;;;;;32.27;33.64;101953.81;5069023;28;20040;-47
2023/08/11 07:17:23;;;;;;;12.32;5.57;;;;;;;32.62;33.23;101940.88;5069153;28;20551;-46
2023/08/11 07:19:48;;;;;;;11.65;5.15;;;;;;;32.98;32.70;101952.13;5069504;28;20509;-45
2023/08/11 07:22:13;;;;;;;8.55;5.07;;;;;;;31.79;35.64;101944.97;5069028;28;20123;-46
2023/08/11 07:24:39;;;;;;;10.02;5.03;;;;;;;32.19;34.18;101950.75;5068820;28;20391;-46
2023/08/11 07:27:04;;;;;;;11.27;5.47;;;;;;;32.38;34.26;101951.38;5069684;28;20033;-45
2023/08/11 07:29:30;;;;;;;10.05;4.85;;;;;;;33.26;32.53;101950.34;5068750;28;20048;-49
2023/08/11 07:31:57;;;;;;;9.20;5.10;;;;;;;32.94;33.40;101958.66;5069508;28;20108;-47
2023/08/11 07:34:22;;;;;;;8.98;5.18;;;;;;;32.28;34.58;101952.88;5067990;28;20074;-46
2023/08/11 07:36:47;;;;;;;7.15;4.47;;;;;;;32.63;34.73;101956.13;5069437;28;20696;-47
2023/08/11 07:39:13;;;;;;;12.43;5.43;;;;;;;32.74;34.07;101952.78;5069092;28;20127;-47
2023/08/11 07:41:38;;;;;;;9.48;5.60;;;;;;;32.37;34.76;101954.16;5069317;28;20523;-49
2023/08/11 07:44:04;;;;;;;9.40;5.20;;;;;;;33.06;34.15;101950.75;5068896;28;20049;-46
2023/08/11 07:46:30;;;;;;;11.65;5.25;;;;;;;32.48;34.25;101952.53;5068931;28;20032;-48
2023/08/11 07:48:55;;;;;;;12.32;5.47;;;;;;;32.80;34.47;101953.28;5069303;28;20114;-45
2023/08/11 07:51:21;;;;;;;7.22;4.90;;;;;;;33.29;33.58;101956.44;5068846;28;20475;-48
2023/08/11 07:53:47;;;;;;;8.55;4.90;;;;;;;33.35;33.76;101952.47;5068546;28;20032;-48
2023/08/11 07:56:13;;;;;;;9.63;5.00;;;;;;;33.49;34.37;101957.81;5068765;28;20384;-50
2023/08/11 07:58:39;;;;;;;9.27;4.88;;;;;;;32.40;35.38;101960.22;5069120;28;20090;-44
2023/08/11 08:01:06;;;;;;;7.60;5.20;;;;;;;32.37;34.96;101965.81;5069034;28;20503;-46
2023/08/11 08:03:31;;;;;;;10.93;5.53;;;;;;;30.95;37.94;101954.22;5068309;28;20499;-46
2023/08/11 08:05:57;;;;;;;8.35;5.15;;;;;;;31.15;38.96;101963.06;5069089;28;20035;-47
2023/08/11 08:08:22;;;;;;;14.30;5.50;;;;;;;30.97;38.99;101962.22;5067456;28;20071;-44
2023/08/11 08:10:47;;;;;;;8.75;5.07;;;;;;;29.97;40.86;101964.78;5068951;28;20033;-49
2023/08/11 08:13:13;;;;;;;8.93;4.63;;;;;;;30.22;40.33;101967.97;5068579;28;20231;-43
2023/08/11 08:15:38;;;;;;;11.73;4.95;;;;;;;29.94;41.29;101967.66;5069170;28;20481;-46
2023/08/11 08:18:04;;;;;;;12.02;4.80;;;;;;;29.79;42.09;101970.13;5069264;28;20036;-47
2023/08/11 08:20:31;;;;;;;9.65;4.90;;;;;;;30.27;40.46;101970.41;5069539;28;20025;-44
2023/08/11 08:22:56;;;;;;;12.48;4.97;;;;;;;30.39;40.94;101959.03;5070808;28;20044;-48
2023/08/11 08:25:22;;;;;;;8.52;4.22;;;;;;;30.36;41.60;101967.28;5070288;28;20112;-45
2023/08/11 08:27:47;;;;;;;10.65;5.18;;;;;;;29.68;43.24;101964.41;5069186;28;20037;-47
2023/08/11 08:30:13;;;;;;;10.77;5.20;;;;;;;29.90;42.31;101972.25;5068609;28;20036;-48
2023/08/11 08:32:39;;;;;;;7.18;4.53;;;;;;;30.30;41.89;101970.28;5068412;28;20055;-46
2023/08/11 08:35:07;;;;;;;11.85;4.95;;;;;;;30.02;41.99;101969.00;5068827;28;20041;-45
2023/08/11 08:37:32;;;;;;;9.93;5.72;;;;;;;29.36;44.15;101970.44;5068790;28;20765;-46
2023/08/11 08:39:58;;;;;;;11.25;5.28;;;;;;;28.83;45.70;101971.13;5068957;28;20116;-49
2023/08/11 08:42:25;;;;;;;10.40;4.32;;;;;;;29.34;45.07;101972.31;5068349;28;20040;-45
2023/08/11 08:44:52;;;;;;;12.25;5.65;;;;;;;28.82;45.98;101976.53;5068163;28;20036;-48
2023/08/11 08:47:19;;;;;;;7.93;4.90;;;;;;;29.39;44.69;101968.50;5071382;28;20037;-45
2023/08/11 08:49:47;;;;;;;10.07;4.60;;;;;;;29.10;47.58;101973.44;5072409;28;20043;-52
2023/08/11 08:52:13;;;;;;;10.27;4.70;;;;;;;29.58;45.44;101971.16;5071894;28;20166;-46
2023/08/11 08:54:39;;;;;;;7.80;4.55;;;;;;;29.78;44.11;101968.38;5071860;28;20119;-50
2023/08/11 08:57:08;;;;;;;8.25;4.57;;;;;;;30.30;42.98;101962.22;5072339;28;20033;-48
2023/08/11 08:59:33;;;;;;;8.65;4.97;;;;;;;30.22;42.94;101968.84;5071694;28;20036;-49
2023/08/11 09:02:00;;;;;;;11.10;4.70;;;;;;;29.74;43.91;101965.91;5072416;28;20044;-45
2023/08/11 09:04:26;;;;;;;11.60;4.72;;;;;;;29.66;44.92;101962.72;5071273;28;20033;-48
2023/08/11 09:06:53;;;;;;;6.57;4.70;;;;;;;30.11;43.91;101963.16;5072100;28;20114;-46
2023/08/11 09:09:19;;;;;;;10.85;5.20;;;;;;;29.46;44.48;101961.00;5071723;28;20097;-49
2023/08/11 09:11:44;;;;;;;8.63;5.05;;;;;;;29.88;43.72;101958.03;5072028;28;20498;-50
2023/08/11 09:14:10;;;;;;;7.40;4.78;;;;;;;30.11;43.76;101959.59;5071799;28;20052;-47
2023/08/11 09:16:38;;;;;;;9.98;5.40;;;;;;;29.46;44.83;101957.47;5071770;28;20047;-47
2023/08/11 09:19:07;;;;;;;9.23;4.90;;;;;;;29.66;44.98;101957.34;5072027;28;20040;-46
2023/08/11 09:21:33;;;;;;;6.40;4.53;;;;;;;30.28;43.86;101956.03;5070039;28;20108;-49
2023/08/11 09:23:59;;;;;;;9.18;5.00;;;;;;;30.18;44.03;101956.53;5071897;28;20120;-46
2023/08/11 09:26:25;;;;;;;13.25;5.03;;;;;;;29.79;44.11;101953.09;5071371;28;20047;-47
2023/08/11 09:28:53;;;;;;;7.80;5.15;;;;;;;29.78;44.50;101954.94;5072376;28;20044;-47
2023/08/11 09:31:22;;;;;;;6.57;4.57;;;;;;;30.08;44.71;101957.91;5071600;28;20036;-45
2023/08/11 09:33:49;;;;;;;8.00;4.68;;;;;;;29.85;45.20;101966.25;5071656;28;20060;-45
2023/08/11 09:36:17;;;;;;;8.75;5.15;;;;;;;30.18;43.38;101963.72;5071632;28;20121;-45
2023/08/11 09:38:43;;;;;;;11.73;4.70;;;;;;;29.80;45.28;101971.84;5072267;28;20032;-45
2023/08/11 09:41:08;;;;;;;10.27;4.55;;;;;;;30.18;44.28;101971.78;5072422;28;20041;-44
2023/08/11 09:43:35;;;;;;;9.95;4.30;;;;;;;30.29;44.16;101961.34;5071941;28;20455;-47
2023/08/11 09:46:00;;;;;;;8.93;4.43;;;;;;;29.54;46.89;101971.38;5075871;28;20056;-48
2023/08/11 09:48:26;;;;;;;8.80;5.07;;;;;;;29.56;45.34;101975.75;5077738;28;20059;-46
2023/08/11 09:50:52;;;;;;;8.57;4.60;;;;;;;29.84;44.74;101961.81;5076249;28;20112;-48
2023/08/11 09:53:19;;;;;;;7.28;4.45;;;;;;;29.84;45.04;101965.38;5070634;28;20044;-45
2023/08/11 09:55:48;;;;;;;8.23;4.43;;;;;;;30.45;44.03;101964.97;5071190;28;20086;-45
2023/08/11 09:58:14;;;;;;;9.77;4.10;;;;;;;30.40;43.89;101960.78;5070497;28;20040;-43
2023/08/11 10:00:40;;;;;;;7.32;4.50;;;;;;;30.41;43.59;101958.00;5070985;28;20042;-49
2023/08/11 10:03:09;;;;;;;6.57;4.43;;;;;;;30.53;43.34;101968.16;5070456;28;20498;-44
2023/08/11 10:05:41;;;;;;;10.70;4.10;;;;;;;30.91;42.95;101970.63;5070761;28;20056;-49
2023/08/11 10:08:10;;;;;;;9.48;3.88;;;;;;;30.76;44.79;101966.94;5070960;28;20518;-51
2023/08/11 10:10:38;;;;;;;9.48;4.25;;;;;;;30.24;46.09;101968.78;5049004;28;20132;-46
2023/08/11 10:13:21;;;;;;;10.40;4.50;;;;;;;29.99;45.23;101963.78;5057606;28;20463;-48
2023/08/11 10:15:48;;;;;;;7.90;4.50;;;;;;;30.21;44.72;101963.53;5070618;28;20071;-44
2023/08/11 10:18:16;;;;;;;9.32;4.32;;;;;;;30.23;44.91;101961.66;5070369;28;20079;-44
2023/08/11 10:20:42;;;;;;;8.98;4.03;;;;;;;30.38;45.10;101960.84;5070701;28;20036;-50
2023/08/11 10:23:08;;;;;;;11.70;4.50;;;;;;;30.19;45.49;101958.22;5070037;28;20035;-46
2023/08/11 10:25:35;;;;;;;8.75;3.90;;;;;;;29.51;47.69;101964.34;5069402;28;20155;-47
2023/08/11 10:28:01;;;;;;;9.32;3.83;;;;;;;29.79;47.58;101964.75;5070288;28;20051;-46
2023/08/11 10:30:27;;;;;;;7.15;3.97;;;;;;;30.12;44.94;101959.53;5069842;28;20097;-45
2023/08/11 10:33:06;;;;;;;7.60;4.18;;;;;;;30.19;45.32;101966.31;5069914;28;20483;-48
2023/08/11 10:35:53;;;;;;;12.57;4.30;;;;;;;29.97;45.91;101954.03;5068937;28;20032;-46
2023/08/11 10:38:24;;;;;;;13.55;3.75;;;;;;;30.01;45.36;101964.56;5069575;28;20029;-44
2023/08/11 10:40:50;;;;;;;6.65;4.07;;;;;;;29.80;46.70;101982.63;5070101;28;20098;-44
2023/08/11 10:43:17;;;;;;;7.45;3.80;;;;;;;29.60;46.42;101971.09;5069444;28;20677;-48
2023/08/11 10:45:44;;;;;;;7.68;4.20;;;;;;;29.78;46.45;101978.25;5070511;28;20161;-46
2023/08/11 10:48:11;;;;;;;10.38;4.30;;;;;;;30.45;44.32;101974.84;5070402;28;20047;-46
2023/08/11 10:50:38;;;;;;;9.60;4.68;;;;;;;31.18;43.42;101970.94;5070516;28;20033;-45
2023/08/11 10:53:20;;;;;;;10.00;5.05;;;;;;;31.08;42.18;101980.50;5070002;28;20078;-48
2023/08/11 10:56:03;;;;;;;8.77;4.57;;;;;;;31.20;42.36;101978.00;5068673;28;20039;-50
2023/08/11 10:58:32;;;;;;;7.03;3.93;;;;;;;31.38;42.68;101978.81;5069567;28;20093;-47
2023/08/11 11:00:58;;;;;;;6.10;4.00;;;;;;;31.41;42.07;101973.25;5070080;28;20431;-49
2023/08/11 11:03:25;;;;;;;7.22;4.05;;;;;;;31.65;42.04;101973.72;5066428;28;20380;-51
2023/08/11 11:05:50;;;;;;;6.10;4.25;;;;;;;31.51;42.21;101982.53;5070198;28;20527;-48
2023/08/11 11:08:16;;;;;;;9.35;4.00;;;;;;;31.45;41.94;101972.09;5067717;28;20048;-47
2023/08/11 11:10:41;;;;;;;6.95;3.72;;;;;;;30.77;44.43;101975.88;5069909;28;20033;-46
2023/08/11 11:13:07;;;;;;;11.05;4.28;;;;;;;30.70;43.25;101977.16;5069537;28;20062;-47